Time;durP1;ratioP1;P1;durP2;ratioP2;P2;SDS_P1;SDS_P2;PMS_P1;PMS_P2;Temp;Humidity;BMP_temperature;BMP_pressure;BME280_temperature;BME280_humidity;BME280_pressure;Samples;Min_cycle;Max_cycle;Signal;HPM_P1;HPM_P2
2022/08/26 00:02:02;;;;;;;1.00;1.00;;;;;;;;;;5027751;28;20230;-55
2022/08/26 00:04:28;;;;;;;0.93;0.93;;;;;;;;;;5028594;28;20228;-54
2022/08/26 00:06:54;;;;;;;1.00;1.00;;;;;;;;;;5045931;28;20268;-56
2022/08/26 00:09:20;;;;;;;0.90;0.90;;;;;;;;;;5036602;28;20703;-55
2022/08/26 00:11:46;;;;;;;1.00;1.00;;;;;;;;;;5042508;28;21624;-56
2022/08/26 00:14:12;;;;;;;0.90;0.90;;;;;;;;;;5030507;28;20276;-54
2022/08/26 00:16:38;;;;;;;1.20;1.20;;;;;;;;;;5031452;28;20780;-54
2022/08/26 00:19:04;;;;;;;0.98;0.98;;;;;;;;;;5020682;28;20216;-55
2022/08/26 00:21:30;;;;;;;0.90;0.90;;;;;;;;;;5034318;28;20306;-54
2022/08/26 00:23:56;;;;;;;0.90;0.90;;;;;;;;;;5042711;28;20224;-55
2022/08/26 00:26:22;;;;;;;0.90;0.90;;;;;;;;;;5038504;28;20752;-56
2022/08/26 00:28:48;;;;;;;0.98;0.98;;;;;;;;;;5024823;28;20409;-54
2022/08/26 00:31:15;;;;;;;1.00;1.00;;;;;;;;;;5020379;28;20249;-56
2022/08/26 00:33:40;;;;;;;1.02;1.02;;;;;;;;;;5031538;28;20219;-55
2022/08/26 00:36:07;;;;;;;1.00;1.00;;;;;;;;;;5037223;28;20563;-55
2022/08/26 00:38:33;;;;;;;1.10;1.10;;;;;;;;;;5030501;28;20361;-55
2022/08/26 00:40:59;;;;;;;1.00;1.00;;;;;;;;;;5030833;28;20228;-55
2022/08/26 00:43:25;;;;;;;0.90;0.90;;;;;;;;;;5027990;28;20249;-55
2022/08/26 00:46:01;;;;;;;1.10;1.10;;;;;;;;;;5031512;28;20806;-55
2022/08/26 00:48:28;;;;;;;1.00;1.00;;;;;;;;;;5022365;28;20238;-56
2022/08/26 00:50:56;;;;;;;1.00;1.00;;;;;;;;;;5027439;28;20599;-56
2022/08/26 00:53:22;;;;;;;1.00;1.00;;;;;;;;;;5011551;28;20232;-56
2022/08/26 00:55:52;;;;;;;1.00;1.00;;;;;;;;;;5041837;28;20216;-55
2022/08/26 00:58:18;;;;;;;1.00;1.00;;;;;;;;;;5006451;28;20783;-55
2022/08/26 01:00:44;;;;;;;0.90;0.90;;;;;;;;;;4999220;28;20622;-55
2022/08/26 01:03:10;;;;;;;0.98;0.98;;;;;;;;;;5009372;28;20231;-55
2022/08/26 01:05:38;;;;;;;1.00;1.00;;;;;;;;;;5035628;28;20251;-56
2022/08/26 01:08:04;;;;;;;1.10;1.10;;;;;;;;;;5037863;28;20212;-55
2022/08/26 01:10:30;;;;;;;0.90;0.90;;;;;;;;;;5034345;28;20290;-56
2022/08/26 01:13:08;;;;;;;1.00;1.00;;;;;;;;;;5025162;28;20236;-55
2022/08/26 01:15:35;;;;;;;0.95;0.95;;;;;;;;;;5021778;28;20224;-54
2022/08/26 01:18:04;;;;;;;1.08;1.08;;;;;;;;;;5024558;28;20230;-56
2022/08/26 01:20:30;;;;;;;1.00;1.00;;;;;;;;;;5004557;28;20216;-55
2022/08/26 01:22:57;;;;;;;1.00;1.00;;;;;;;;;;5023667;28;20227;-54
2022/08/26 01:25:23;;;;;;;0.90;0.90;;;;;;;;;;5021181;28;20216;-56
2022/08/26 01:27:49;;;;;;;1.00;1.00;;;;;;;;;;5007727;28;20220;-55
2022/08/26 01:30:15;;;;;;;1.00;1.00;;;;;;;;;;5024841;28;20223;-55
2022/08/26 01:32:41;;;;;;;0.90;0.90;;;;;;;;;;4993722;28;20221;-56
2022/08/26 01:35:08;;;;;;;1.10;1.10;;;;;;;;;;5035463;28;20242;-54
2022/08/26 01:37:35;;;;;;;1.08;1.08;;;;;;;;;;5028561;28;20235;-55
2022/08/26 01:40:02;;;;;;;1.10;1.10;;;;;;;;;;5010820;28;20723;-56
2022/08/26 01:42:28;;;;;;;1.00;1.00;;;;;;;;;;5019799;28;20352;-56
2022/08/26 01:44:58;;;;;;;1.00;1.00;;;;;;;;;;5019670;28;20399;-55
2022/08/26 01:47:25;;;;;;;1.00;1.00;;;;;;;;;;5032004;28;21114;-54
2022/08/26 01:49:51;;;;;;;1.05;1.05;;;;;;;;;;5024011;28;20610;-55
2022/08/26 01:52:20;;;;;;;0.98;0.98;;;;;;;;;;5038996;28;20211;-56
2022/08/26 01:54:46;;;;;;;1.00;1.00;;;;;;;;;;5021957;28;21510;-54
2022/08/26 01:57:12;;;;;;;1.00;1.00;;;;;;;;;;5018947;28;20220;-55
2022/08/26 01:59:38;;;;;;;1.00;1.00;;;;;;;;;;5020712;28;20228;-55
2022/08/26 02:02:04;;;;;;;1.00;1.00;;;;;;;;;;5036612;28;20220;-55
2022/08/26 02:04:34;;;;;;;1.10;1.10;;;;;;;;;;5035603;28;20640;-54
2022/08/26 02:07:02;;;;;;;0.98;0.98;;;;;;;;;;5032730;28;20229;-55
2022/08/26 02:09:28;;;;;;;0.90;0.90;;;;;;;;;;5035327;28;20230;-55
2022/08/26 02:11:54;;;;;;;1.10;1.10;;;;;;;;;;5025071;28;20231;-56
2022/08/26 02:14:30;;;;;;;1.00;1.00;;;;;;;;;;5024587;28;20257;-55
2022/08/26 02:16:56;;;;;;;1.00;1.00;;;;;;;;;;5029687;28;20675;-56
2022/08/26 02:19:22;;;;;;;1.05;1.05;;;;;;;;;;5025536;28;21073;-56
2022/08/26 02:21:48;;;;;;;1.00;1.00;;;;;;;;;;5031331;28;20916;-55
2022/08/26 02:24:19;;;;;;;0.90;0.90;;;;;;;;;;5033584;28;20232;-54
2022/08/26 02:26:45;;;;;;;1.00;1.00;;;;;;;;;;5028364;28;20539;-54
2022/08/26 02:29:11;;;;;;;0.90;0.90;;;;;;;;;;5017824;28;20285;-54
2022/08/26 02:31:38;;;;;;;0.90;0.90;;;;;;;;;;5021406;28;20229;-55
2022/08/26 02:34:10;;;;;;;0.90;0.90;;;;;;;;;;5031642;28;20348;-55
2022/08/26 02:36:36;;;;;;;1.02;1.02;;;;;;;;;;5025086;28;20270;-55
2022/08/26 02:39:02;;;;;;;0.90;0.90;;;;;;;;;;5031970;28;20235;-55
2022/08/26 02:41:28;;;;;;;0.80;0.80;;;;;;;;;;5037041;28;20223;-55
2022/08/26 02:43:54;;;;;;;1.10;1.10;;;;;;;;;;5026723;28;20411;-55
2022/08/26 02:46:20;;;;;;;0.90;0.90;;;;;;;;;;5023200;28;20276;-56
2022/08/26 02:48:46;;;;;;;0.90;0.90;;;;;;;;;;5035565;28;20220;-55
2022/08/26 02:51:12;;;;;;;0.80;0.80;;;;;;;;;;5036607;28;20588;-55
2022/08/26 02:53:38;;;;;;;0.90;0.90;;;;;;;;;;5032488;28;20298;-55
2022/08/26 02:56:07;;;;;;;0.90;0.90;;;;;;;;;;5029622;28;20215;-54
2022/08/26 02:58:33;;;;;;;0.80;0.80;;;;;;;;;;5026122;28;20225;-55
2022/08/26 03:00:59;;;;;;;1.00;1.00;;;;;;;;;;5013375;28;20357;-55
2022/08/26 03:03:25;;;;;;;0.90;0.90;;;;;;;;;;5029858;28;20225;-55
2022/08/26 03:05:51;;;;;;;0.90;0.90;;;;;;;;;;5022448;28;20615;-55
2022/08/26 03:08:17;;;;;;;0.90;0.90;;;;;;;;;;5032758;28;20220;-54
2022/08/26 03:10:45;;;;;;;0.90;0.90;;;;;;;;;;5034082;28;20625;-55
2022/08/26 03:13:11;;;;;;;0.90;0.90;;;;;;;;;;5035552;28;20235;-55
2022/08/26 03:15:37;;;;;;;0.90;0.90;;;;;;;;;;5033819;28;20219;-55
2022/08/26 03:18:03;;;;;;;1.00;1.00;;;;;;;;;;5039564;28;20226;-55
2022/08/26 03:20:29;;;;;;;0.90;0.90;;;;;;;;;;5031136;28;20302;-54
2022/08/26 03:22:55;;;;;;;0.90;0.90;;;;;;;;;;5020125;28;20291;-55
2022/08/26 03:25:21;;;;;;;0.90;0.90;;;;;;;;;;5036751;28;20693;-55
2022/08/26 03:27:48;;;;;;;0.90;0.90;;;;;;;;;;5023614;28;20211;-56
2022/08/26 03:32:58;;;;;;;0.90;0.90;;;;;;;;;;5027462;28;20236;-55
2022/08/26 03:35:24;;;;;;;0.90;0.90;;;;;;;;;;5034886;28;20310;-54
2022/08/26 03:37:51;;;;;;;1.00;1.00;;;;;;;;;;5026865;28;20251;-55
2022/08/26 03:40:17;;;;;;;0.80;0.80;;;;;;;;;;5038085;28;20735;-55
2022/08/26 03:42:43;;;;;;;0.80;0.80;;;;;;;;;;5028111;28;20581;-55
2022/08/26 03:45:10;;;;;;;0.70;0.70;;;;;;;;;;5035544;28;20319;-56
2022/08/26 03:47:36;;;;;;;0.90;0.90;;;;;;;;;;5039215;28;20723;-55
2022/08/26 03:50:03;;;;;;;0.90;0.90;;;;;;;;;;5032099;28;20315;-55
2022/08/26 03:52:29;;;;;;;0.90;0.90;;;;;;;;;;5023136;28;20606;-55
2022/08/26 03:54:55;;;;;;;0.80;0.80;;;;;;;;;;5032029;28;20228;-55
2022/08/26 03:57:22;;;;;;;0.90;0.90;;;;;;;;;;5032720;28;20241;-56
2022/08/26 03:59:48;;;;;;;0.90;0.90;;;;;;;;;;5034820;28;20216;-55
2022/08/26 04:02:14;;;;;;;1.00;1.00;;;;;;;;;;5024592;28;20605;-55
2022/08/26 04:04:40;;;;;;;0.83;0.83;;;;;;;;;;5019149;28;20231;-55
2022/08/26 04:07:06;;;;;;;0.80;0.80;;;;;;;;;;5012091;28;20832;-54
2022/08/26 04:09:32;;;;;;;0.97;0.97;;;;;;;;;;5006912;28;20615;-56
2022/08/26 04:11:58;;;;;;;0.90;0.90;;;;;;;;;;5024140;28;20707;-55
2022/08/26 04:14:24;;;;;;;0.80;0.80;;;;;;;;;;5031359;28;20881;-54
2022/08/26 04:16:50;;;;;;;0.87;0.87;;;;;;;;;;5020545;28;20350;-55
2022/08/26 04:19:16;;;;;;;0.90;0.90;;;;;;;;;;5016960;28;21477;-55
2022/08/26 04:21:42;;;;;;;0.80;0.80;;;;;;;;;;5027691;28;20713;-56
2022/08/26 04:24:09;;;;;;;0.90;0.90;;;;;;;;;;5035380;28;20262;-56
2022/08/26 04:26:36;;;;;;;0.80;0.80;;;;;;;;;;5028459;28;20586;-55
2022/08/26 04:29:03;;;;;;;0.70;0.70;;;;;;;;;;5016219;28;20252;-55
2022/08/26 04:31:29;;;;;;;0.90;0.90;;;;;;;;;;4998245;28;20371;-54
2022/08/26 04:33:55;;;;;;;0.90;0.90;;;;;;;;;;5030018;28;20704;-55
2022/08/26 04:36:24;;;;;;;0.80;0.80;;;;;;;;;;5008727;28;20231;-56
2022/08/26 04:38:50;;;;;;;0.85;0.85;;;;;;;;;;5016039;28;21203;-55
2022/08/26 04:41:17;;;;;;;0.90;0.90;;;;;;;;;;5012448;28;20227;-56
2022/08/26 04:43:43;;;;;;;0.70;0.70;;;;;;;;;;5027881;28;20242;-55
2022/08/26 04:46:10;;;;;;;0.80;0.80;;;;;;;;;;5029188;28;20945;-55
2022/08/26 04:48:36;;;;;;;0.80;0.80;;;;;;;;;;5043765;28;20310;-55
2022/08/26 04:51:03;;;;;;;0.80;0.80;;;;;;;;;;5020531;28;20231;-55
2022/08/26 04:53:29;;;;;;;0.83;0.83;;;;;;;;;;5016072;28;20238;-54
2022/08/26 04:55:55;;;;;;;0.90;0.90;;;;;;;;;;5016614;28;20948;-54
2022/08/26 04:58:22;;;;;;;0.88;0.88;;;;;;;;;;5006682;28;20806;-55
2022/08/26 05:00:48;;;;;;;0.80;0.80;;;;;;;;;;5004120;28;20583;-55
2022/08/26 05:03:16;;;;;;;0.80;0.80;;;;;;;;;;5003290;28;20712;-54
2022/08/26 05:05:42;;;;;;;0.80;0.80;;;;;;;;;;5005322;28;20661;-55
2022/08/26 05:08:08;;;;;;;0.82;0.82;;;;;;;;;;5009114;28;20997;-57
2022/08/26 05:10:38;;;;;;;0.90;0.90;;;;;;;;;;5005201;28;20264;-56
2022/08/26 05:13:04;;;;;;;0.90;0.90;;;;;;;;;;5003895;28;20218;-59
2022/08/26 05:15:30;;;;;;;0.85;0.85;;;;;;;;;;5019756;28;20232;-55
2022/08/26 05:17:57;;;;;;;0.90;0.90;;;;;;;;;;5013951;28;20225;-58
2022/08/26 05:20:24;;;;;;;0.90;0.90;;;;;;;;;;5031454;28;21656;-58
2022/08/26 05:22:50;;;;;;;0.80;0.80;;;;;;;;;;5012156;28;20220;-58
2022/08/26 05:25:17;;;;;;;0.93;0.93;;;;;;;;;;5026237;28;20216;-57
2022/08/26 05:27:43;;;;;;;0.80;0.80;;;;;;;;;;5031027;28;20215;-57
2022/08/26 05:30:09;;;;;;;0.90;0.90;;;;;;;;;;5033420;28;20244;-58
2022/08/26 05:32:35;;;;;;;0.90;0.90;;;;;;;;;;5031402;28;20237;-58
2022/08/26 05:35:04;;;;;;;1.00;1.00;;;;;;;;;;5034868;28;20830;-58
2022/08/26 05:37:30;;;;;;;1.07;1.07;;;;;;;;;;5036920;28;20267;-57
2022/08/26 05:39:56;;;;;;;0.80;0.80;;;;;;;;;;5044149;28;20274;-58
2022/08/26 05:42:21;;;;;;;0.80;0.80;;;;;;;;;;5033179;28;20224;-58
2022/08/26 05:44:51;;;;;;;0.83;0.83;;;;;;;;;;5047457;28;20305;-58
2022/08/26 05:47:17;;;;;;;0.70;0.70;;;;;;;;;;5038316;28;20240;-58
2022/08/26 05:49:43;;;;;;;0.90;0.90;;;;;;;;;;5034763;28;20308;-57
2022/08/26 05:52:09;;;;;;;0.80;0.80;;;;;;;;;;5037194;28;20278;-58
2022/08/26 05:54:35;;;;;;;0.90;0.90;;;;;;;;;;5038242;28;20219;-57
2022/08/26 05:57:01;;;;;;;0.83;0.83;;;;;;;;;;5028705;28;20236;-58
2022/08/26 05:59:28;;;;;;;0.80;0.80;;;;;;;;;;5035208;28;20291;-58
2022/08/26 06:01:54;;;;;;;0.90;0.90;;;;;;;;;;5024925;28;20220;-57
2022/08/26 06:04:20;;;;;;;0.90;0.90;;;;;;;;;;5029253;28;20240;-58
2022/08/26 06:06:46;;;;;;;0.93;0.93;;;;;;;;;;5039146;28;20634;-58
2022/08/26 06:09:12;;;;;;;1.00;1.00;;;;;;;;;;5031494;28;20311;-58
2022/08/26 06:11:38;;;;;;;0.93;0.93;;;;;;;;;;5017357;28;20239;-58
2022/08/26 06:14:04;;;;;;;1.10;1.10;;;;;;;;;;5043736;28;20212;-58
2022/08/26 06:16:31;;;;;;;0.80;0.80;;;;;;;;;;5028071;28;20229;-58
2022/08/26 06:18:57;;;;;;;1.20;1.20;;;;;;;;;;5036697;28;20425;-58
2022/08/26 06:21:24;;;;;;;0.90;0.90;;;;;;;;;;5061036;28;20236;-58
2022/08/26 06:26:35;;;;;;;1.03;1.03;;;;;;;;;;5017647;28;20251;-58
2022/08/26 06:29:01;;;;;;;0.90;0.90;;;;;;;;;;5016311;28;20343;-58
2022/08/26 06:31:27;;;;;;;0.90;0.90;;;;;;;;;;5016861;28;20454;-58
2022/08/26 06:33:53;;;;;;;0.97;0.97;;;;;;;;;;5024276;28;20255;-58
2022/08/26 06:36:20;;;;;;;0.80;0.80;;;;;;;;;;5025221;28;20763;-57
2022/08/26 06:38:47;;;;;;;0.97;0.97;;;;;;;;;;5014043;28;20299;-58
2022/08/26 06:41:13;;;;;;;0.80;0.80;;;;;;;;;;5027726;28;20311;-58
2022/08/26 06:43:39;;;;;;;0.80;0.80;;;;;;;;;;5021447;28;21051;-57
2022/08/26 06:46:06;;;;;;;0.90;0.90;;;;;;;;;;5021423;28;20215;-58
2022/08/26 06:48:32;;;;;;;0.80;0.80;;;;;;;;;;5024816;28;20220;-58
2022/08/26 06:51:02;;;;;;;0.80;0.80;;;;;;;;;;5036609;28;20762;-58
2022/08/26 06:53:28;;;;;;;0.80;0.80;;;;;;;;;;5035199;28;20227;-58
2022/08/26 06:55:54;;;;;;;0.80;0.80;;;;;;;;;;5014485;28;20513;-57
2022/08/26 06:58:20;;;;;;;0.80;0.80;;;;;;;;;;5015002;28;20227;-58
2022/08/26 07:00:46;;;;;;;0.93;0.93;;;;;;;;;;5018586;28;20854;-58
2022/08/26 07:03:12;;;;;;;1.00;1.00;;;;;;;;;;5019948;28;20991;-57
2022/08/26 07:05:38;;;;;;;0.90;0.90;;;;;;;;;;5025684;28;20222;-57
2022/08/26 07:08:04;;;;;;;0.80;0.80;;;;;;;;;;5028638;28;20227;-57
2022/08/26 07:10:30;;;;;;;0.90;0.90;;;;;;;;;;5019302;28;20236;-58
2022/08/26 07:12:56;;;;;;;0.90;0.90;;;;;;;;;;5029008;28;26670;-57
2022/08/26 07:15:22;;;;;;;0.80;0.80;;;;;;;;;;5010021;28;20797;-57
2022/08/26 07:17:48;;;;;;;1.00;1.00;;;;;;;;;;5022273;28;21271;-57
2022/08/26 07:20:14;;;;;;;0.80;0.80;;;;;;;;;;5018480;28;20223;-58
2022/08/26 07:22:40;;;;;;;0.93;0.93;;;;;;;;;;5023415;28;20653;-58
2022/08/26 07:25:07;;;;;;;0.90;0.90;;;;;;;;;;5012887;28;20255;-57
2022/08/26 07:27:33;;;;;;;0.80;0.80;;;;;;;;;;5017242;28;20304;-58
2022/08/26 07:29:59;;;;;;;1.00;1.00;;;;;;;;;;5020598;28;20227;-58
2022/08/26 07:32:25;;;;;;;0.80;0.80;;;;;;;;;;5015595;28;20316;-58
2022/08/26 07:34:51;;;;;;;0.90;0.90;;;;;;;;;;5019075;28;20235;-57
2022/08/26 07:37:17;;;;;;;0.90;0.90;;;;;;;;;;5015330;28;20339;-58
2022/08/26 07:39:43;;;;;;;0.90;0.90;;;;;;;;;;5023158;28;20216;-57
2022/08/26 07:42:09;;;;;;;0.90;0.90;;;;;;;;;;5017178;28;20237;-58
2022/08/26 07:44:36;;;;;;;0.93;0.93;;;;;;;;;;5021733;28;20607;-57
2022/08/26 07:47:02;;;;;;;0.83;0.83;;;;;;;;;;5023577;28;20227;-57
2022/08/26 07:49:28;;;;;;;0.80;0.80;;;;;;;;;;5024784;28;20289;-58
2022/08/26 07:51:54;;;;;;;0.80;0.80;;;;;;;;;;5025452;28;20216;-57
2022/08/26 07:54:20;;;;;;;0.80;0.80;;;;;;;;;;5002900;28;21619;-58
2022/08/26 07:56:47;;;;;;;0.80;0.80;;;;;;;;;;5007265;28;20261;-58
2022/08/26 07:59:13;;;;;;;0.90;0.90;;;;;;;;;;5014161;28;20231;-58
2022/08/26 08:01:38;;;;;;;0.90;0.90;;;;;;;;;;5009958;28;20316;-58
2022/08/26 08:04:05;;;;;;;0.80;0.80;;;;;;;;;;5010378;28;20607;-58
2022/08/26 08:06:31;;;;;;;0.90;0.90;;;;;;;;;;5026224;28;20228;-57
2022/08/26 08:08:57;;;;;;;0.80;0.80;;;;;;;;;;5020735;28;20247;-57
2022/08/26 08:11:25;;;;;;;0.90;0.90;;;;;;;;;;5030835;28;20211;-57
2022/08/26 08:13:51;;;;;;;0.90;0.90;;;;;;;;;;5019196;28;20791;-58
2022/08/26 08:16:17;;;;;;;1.07;1.07;;;;;;;;;;5021744;28;20235;-57
2022/08/26 08:18:43;;;;;;;1.00;1.00;;;;;;;;;;5029438;28;20234;-58
2022/08/26 08:21:09;;;;;;;0.90;0.90;;;;;;;;;;5028394;28;20611;-58
2022/08/26 08:23:35;;;;;;;0.90;0.90;;;;;;;;;;5029575;28;20583;-58
2022/08/26 08:26:04;;;;;;;0.80;0.80;;;;;;;;;;5032649;28;20228;-58
2022/08/26 08:28:30;;;;;;;0.90;0.90;;;;;;;;;;5013650;28;20838;-57
2022/08/26 08:30:56;;;;;;;1.00;1.00;;;;;;;;;;5024714;28;20228;-58
2022/08/26 08:33:22;;;;;;;0.90;0.90;;;;;;;;;;5028403;28;20221;-58
2022/08/26 08:35:48;;;;;;;0.80;0.80;;;;;;;;;;5025245;28;20231;-58
2022/08/26 08:38:15;;;;;;;0.90;0.90;;;;;;;;;;5040692;28;20235;-58
2022/08/26 08:40:41;;;;;;;0.83;0.83;;;;;;;;;;5046300;28;20307;-57
2022/08/26 08:43:12;;;;;;;0.80;0.80;;;;;;;;;;5046942;28;20229;-58
2022/08/26 08:45:48;;;;;;;0.90;0.90;;;;;;;;;;5038734;28;20247;-57
2022/08/26 08:48:26;;;;;;;0.80;0.80;;;;;;;;;;5045200;28;20281;-58
2022/08/26 08:50:52;;;;;;;0.90;0.90;;;;;;;;;;5041695;28;20693;-57
2022/08/26 08:53:25;;;;;;;0.80;0.80;;;;;;;;;;5042510;28;20628;-57
2022/08/26 08:55:57;;;;;;;0.87;0.87;;;;;;;;;;5032905;28;20625;-57
2022/08/26 08:58:44;;;;;;;1.00;1.00;;;;;;;;;;5046794;28;20256;-57
2022/08/26 09:01:12;;;;;;;0.80;0.80;;;;;;;;;;5028901;28;20227;-58
2022/08/26 09:03:55;;;;;;;0.80;0.80;;;;;;;;;;5029506;28;20220;-57
2022/08/26 09:06:21;;;;;;;0.80;0.80;;;;;;;;;;5040477;28;20301;-58
2022/08/26 09:08:48;;;;;;;1.00;1.00;;;;;;;;;;5048965;28;20828;-57
2022/08/26 09:11:14;;;;;;;0.90;0.90;;;;;;;;;;5029746;28;21091;-60
2022/08/26 09:13:42;;;;;;;0.87;0.87;;;;;;;;;;5041561;28;20530;-57
2022/08/26 09:16:08;;;;;;;1.00;1.00;;;;;;;;;;5031194;28;20234;-57
2022/08/26 09:18:40;;;;;;;0.90;0.90;;;;;;;;;;5047345;28;20219;-57
2022/08/26 09:21:11;;;;;;;0.80;0.80;;;;;;;;;;5050999;28;20296;-58
2022/08/26 09:23:38;;;;;;;0.80;0.80;;;;;;;;;;5052991;28;20664;-58
2022/08/26 09:26:18;;;;;;;0.80;0.80;;;;;;;;;;5044509;28;20696;-58
2022/08/26 09:28:48;;;;;;;0.80;0.80;;;;;;;;;;5035338;28;20233;-58
2022/08/26 09:31:18;;;;;;;0.80;0.80;;;;;;;;;;5046613;28;20323;-58
2022/08/26 09:33:44;;;;;;;0.90;0.90;;;;;;;;;;5028182;28;20285;-58
2022/08/26 09:36:13;;;;;;;0.83;0.83;;;;;;;;;;5043163;28;20348;-58
2022/08/26 09:38:40;;;;;;;0.90;0.90;;;;;;;;;;4995277;28;20242;-58
2022/08/26 09:41:07;;;;;;;0.80;0.80;;;;;;;;;;5022581;28;20220;-58
2022/08/26 09:43:33;;;;;;;0.80;0.80;;;;;;;;;;5013289;28;20226;-58
2022/08/26 09:46:18;;;;;;;0.80;0.80;;;;;;;;;;5008751;28;20765;-57
2022/08/26 09:48:43;;;;;;;0.80;0.80;;;;;;;;;;4989935;28;20225;-58
2022/08/26 09:51:22;;;;;;;1.00;1.00;;;;;;;;;;5014978;28;20236;-58
2022/08/26 09:53:55;;;;;;;0.80;0.80;;;;;;;;;;5015640;28;20330;-57
2022/08/26 09:56:25;;;;;;;0.90;0.90;;;;;;;;;;5015281;28;20584;-57
2022/08/26 09:58:51;;;;;;;0.80;0.80;;;;;;;;;;5002931;28;21954;-57
2022/08/26 10:01:23;;;;;;;1.00;1.00;;;;;;;;;;5021976;28;20233;-58
2022/08/26 10:03:50;;;;;;;0.80;0.80;;;;;;;;;;5005490;28;20713;-58
2022/08/26 10:06:16;;;;;;;0.70;0.70;;;;;;;;;;5019480;28;20232;-58
2022/08/26 10:08:42;;;;;;;1.00;1.00;;;;;;;;;;5018443;28;20239;-57
2022/08/26 10:11:27;;;;;;;1.10;1.10;;;;;;;;;;4994613;28;20219;-57
2022/08/26 10:13:57;;;;;;;0.90;0.90;;;;;;;;;;5000721;28;20240;-58
2022/08/26 10:16:25;;;;;;;0.90;0.90;;;;;;;;;;5019325;28;20244;-57
2022/08/26 10:19:11;;;;;;;1.00;1.00;;;;;;;;;;4998263;28;20216;-58
2022/08/26 10:21:38;;;;;;;1.10;1.10;;;;;;;;;;5023979;28;20227;-58
2022/08/26 10:24:04;;;;;;;0.80;0.80;;;;;;;;;;5006757;28;20251;-57
2022/08/26 10:26:32;;;;;;;1.00;1.00;;;;;;;;;;5002435;28;21188;-58
2022/08/26 10:29:05;;;;;;;0.90;0.90;;;;;;;;;;4990954;28;20330;-58
2022/08/26 10:31:39;;;;;;;1.00;1.00;;;;;;;;;;4992436;28;20228;-58
2022/08/26 10:34:05;;;;;;;0.93;0.93;;;;;;;;;;4999404;28;20217;-57
2022/08/26 10:36:48;;;;;;;0.90;0.90;;;;;;;;;;5010398;28;20759;-57
2022/08/26 10:39:18;;;;;;;0.90;0.90;;;;;;;;;;4998098;28;20786;-57
2022/08/26 10:41:43;;;;;;;0.90;0.90;;;;;;;;;;5025277;28;20624;-57
2022/08/26 10:44:10;;;;;;;1.00;1.00;;;;;;;;;;5010077;28;20251;-57
2022/08/26 10:46:44;;;;;;;0.93;0.93;;;;;;;;;;5032481;28;20250;-57
2022/08/26 10:49:14;;;;;;;1.00;1.00;;;;;;;;;;5030687;28;20251;-57
2022/08/26 10:51:42;;;;;;;1.10;1.10;;;;;;;;;;5023832;28;20234;-58
2022/08/26 10:54:19;;;;;;;1.00;1.00;;;;;;;;;;5024366;28;20211;-57
2022/08/26 10:57:04;;;;;;;0.93;0.93;;;;;;;;;;5035200;28;20224;-57
2022/08/26 10:59:39;;;;;;;1.00;1.00;;;;;;;;;;5030769;28;21124;-57
2022/08/26 11:02:13;;;;;;;1.00;1.00;;;;;;;;;;5029381;28;20702;-57
2022/08/26 11:04:44;;;;;;;1.10;1.10;;;;;;;;;;5033560;28;20578;-57
2022/08/26 11:07:29;;;;;;;1.00;1.00;;;;;;;;;;5025480;28;20258;-58
2022/08/26 11:09:56;;;;;;;0.98;0.98;;;;;;;;;;5038754;28;20721;-56
2022/08/26 11:12:34;;;;;;;1.00;1.00;;;;;;;;;;5001276;28;20300;-58
2022/08/26 11:15:01;;;;;;;0.90;0.90;;;;;;;;;;5001612;28;20678;-58
2022/08/26 11:17:45;;;;;;;1.20;1.20;;;;;;;;;;5008825;28;22610;-57
2022/08/26 11:20:12;;;;;;;1.05;1.05;;;;;;;;;;5013606;28;20708;-60
2022/08/26 11:22:38;;;;;;;1.00;1.00;;;;;;;;;;5016005;28;20303;-60
2022/08/26 11:25:14;;;;;;;1.00;1.00;;;;;;;;;;5026075;28;20300;-59
2022/08/26 11:27:40;;;;;;;1.00;1.00;;;;;;;;;;5015713;28;20781;-58
2022/08/26 11:30:09;;;;;;;0.95;0.95;;;;;;;;;;5009103;28;20240;-61
2022/08/26 11:32:38;;;;;;;1.10;1.10;;;;;;;;;;5014003;28;20224;-61
2022/08/26 11:35:04;;;;;;;1.00;1.00;;;;;;;;;;5039743;28;20287;-60
2022/08/26 11:37:35;;;;;;;1.00;1.00;;;;;;;;;;5015250;28;20359;-60
2022/08/26 11:40:03;;;;;;;0.90;0.90;;;;;;;;;;5014057;28;20215;-58
2022/08/26 11:42:35;;;;;;;0.90;0.90;;;;;;;;;;5019760;28;20308;-58
2022/08/26 11:45:03;;;;;;;0.90;0.90;;;;;;;;;;5003996;28;20212;-59
2022/08/26 11:47:29;;;;;;;0.93;0.93;;;;;;;;;;5013651;28;20366;-60
2022/08/26 11:50:16;;;;;;;0.98;0.98;;;;;;;;;;5017212;28;20230;-59
2022/08/26 11:52:50;;;;;;;1.00;1.00;;;;;;;;;;5015420;28;20258;-59
2022/08/26 11:55:16;;;;;;;0.90;0.90;;;;;;;;;;5008249;28;20223;-59
2022/08/26 11:57:52;;;;;;;0.90;0.90;;;;;;;;;;5021074;28;20222;-59
2022/08/26 12:00:23;;;;;;;0.90;0.90;;;;;;;;;;4995735;28;20353;-59
2022/08/26 12:02:50;;;;;;;0.90;0.90;;;;;;;;;;5012876;28;20238;-60
2022/08/26 12:05:17;;;;;;;0.95;0.95;;;;;;;;;;5013532;28;21007;-59
2022/08/26 12:07:43;;;;;;;0.90;0.90;;;;;;;;;;4995622;28;20280;-59
2022/08/26 12:10:09;;;;;;;0.93;0.93;;;;;;;;;;4999334;28;20609;-59
2022/08/26 12:12:38;;;;;;;1.08;1.08;;;;;;;;;;5003164;28;20228;-58
2022/08/26 12:15:09;;;;;;;1.10;1.10;;;;;;;;;;5012888;28;20228;-60
2022/08/26 12:17:35;;;;;;;1.15;1.15;;;;;;;;;;5012896;28;20223;-60
2022/08/26 12:20:01;;;;;;;0.98;0.98;;;;;;;;;;5019068;28;20231;-59
2022/08/26 12:22:28;;;;;;;1.13;1.13;;;;;;;;;;5030845;28;20303;-58
2022/08/26 12:24:57;;;;;;;0.90;0.90;;;;;;;;;;5029087;28;20227;-55
2022/08/26 12:27:24;;;;;;;1.10;1.10;;;;;;;;;;5010060;28;20231;-54
2022/08/26 12:30:01;;;;;;;0.80;0.80;;;;;;;;;;5011385;28;20225;-55
2022/08/26 12:32:27;;;;;;;0.90;0.90;;;;;;;;;;5025677;28;20230;-62
2022/08/26 12:34:53;;;;;;;0.90;0.90;;;;;;;;;;5009513;28;20234;-56
2022/08/26 12:37:19;;;;;;;0.82;0.82;;;;;;;;;;5018950;28;20679;-57
2022/08/26 12:39:46;;;;;;;0.80;0.80;;;;;;;;;;5027181;28;20215;-58
2022/08/26 12:42:14;;;;;;;1.08;1.08;;;;;;;;;;5032092;28;20354;-55
2022/08/26 12:44:44;;;;;;;0.95;0.95;;;;;;;;;;5034471;28;20223;-56
2022/08/26 12:47:21;;;;;;;0.90;0.90;;;;;;;;;;5026419;28;20784;-56
2022/08/26 12:49:47;;;;;;;0.90;0.90;;;;;;;;;;5029774;28;20270;-58
2022/08/26 12:52:28;;;;;;;1.10;1.10;;;;;;;;;;5030196;28;20473;-57
2022/08/26 12:54:57;;;;;;;0.98;0.98;;;;;;;;;;5017448;28;20224;-57
2022/08/26 12:57:27;;;;;;;1.00;1.00;;;;;;;;;;5027529;28;20591;-58
2022/08/26 12:59:53;;;;;;;0.95;0.95;;;;;;;;;;5028210;28;20581;-56
2022/08/26 13:02:35;;;;;;;1.00;1.00;;;;;;;;;;5028194;28;20216;-57
2022/08/26 13:05:01;;;;;;;1.00;1.00;;;;;;;;;;5025162;28;20668;-58
2022/08/26 13:07:27;;;;;;;1.13;1.13;;;;;;;;;;5023236;28;20636;-58
2022/08/26 13:09:54;;;;;;;1.05;1.05;;;;;;;;;;5031337;28;20232;-58
2022/08/26 13:12:46;;;;;;;1.00;1.00;;;;;;;;;;5026327;28;20234;-56
2022/08/26 13:15:12;;;;;;;1.00;1.00;;;;;;;;;;5035944;28;20227;-58
2022/08/26 13:17:38;;;;;;;1.00;1.00;;;;;;;;;;5038792;28;20224;-56
2022/08/26 13:20:04;;;;;;;1.08;1.08;;;;;;;;;;5034600;28;20220;-58
2022/08/26 13:22:30;;;;;;;0.90;0.90;;;;;;;;;;5035678;28;20640;-58
2022/08/26 13:24:56;;;;;;;0.95;0.95;;;;;;;;;;5033320;28;20219;-57
2022/08/26 13:27:24;;;;;;;10.00;8.93;;;;;;;;;;5042265;28;20321;-58
2022/08/26 13:29:50;;;;;;;0.90;0.90;;;;;;;;;;5036505;28;20226;-57
2022/08/26 13:32:17;;;;;;;0.80;0.80;;;;;;;;;;5029539;28;20219;-58
2022/08/26 13:34:43;;;;;;;0.90;0.90;;;;;;;;;;5017273;28;20226;-56
2022/08/26 13:37:08;;;;;;;1.10;1.10;;;;;;;;;;5015719;28;22861;-57
2022/08/26 13:39:35;;;;;;;1.20;1.20;;;;;;;;;;5038442;28;20220;-59
2022/08/26 13:42:01;;;;;;;1.00;1.00;;;;;;;;;;5040314;28;20682;-56
2022/08/26 13:44:27;;;;;;;1.08;1.08;;;;;;;;;;5037035;28;20277;-56
2022/08/26 13:46:53;;;;;;;1.00;1.00;;;;;;;;;;5037868;28;20230;-57
2022/08/26 13:49:19;;;;;;;1.00;1.00;;;;;;;;;;5029060;28;20742;-56
2022/08/26 13:51:45;;;;;;;1.00;1.00;;;;;;;;;;5037925;28;20219;-56
2022/08/26 13:54:11;;;;;;;1.00;1.00;;;;;;;;;;5038368;28;20218;-57
2022/08/26 13:56:37;;;;;;;0.90;0.90;;;;;;;;;;5032395;28;20744;-57
2022/08/26 13:59:03;;;;;;;0.80;0.80;;;;;;;;;;5032826;28;20692;-58
2022/08/26 14:01:29;;;;;;;0.93;0.93;;;;;;;;;;5013940;28;20859;-56
2022/08/26 14:03:55;;;;;;;1.00;1.00;;;;;;;;;;5027429;28;20674;-56
2022/08/26 14:06:21;;;;;;;1.00;1.00;;;;;;;;;;5025173;28;20221;-57
2022/08/26 14:08:48;;;;;;;1.00;1.00;;;;;;;;;;5020172;28;20223;-56
2022/08/26 14:11:14;;;;;;;1.00;1.00;;;;;;;;;;5021153;28;20251;-56
2022/08/26 14:13:40;;;;;;;1.00;1.00;;;;;;;;;;5030288;28;20342;-57
2022/08/26 14:16:09;;;;;;;0.90;0.90;;;;;;;;;;5044398;28;20588;-58
2022/08/26 14:18:38;;;;;;;0.95;0.95;;;;;;;;;;4999001;28;20235;-55
2022/08/26 14:21:04;;;;;;;0.90;0.90;;;;;;;;;;5003612;28;22739;-58
2022/08/26 14:23:29;;;;;;;0.90;0.90;;;;;;;;;;5004110;28;20719;-58
2022/08/26 14:25:55;;;;;;;1.00;1.00;;;;;;;;;;5010844;28;20306;-58
2022/08/26 14:28:21;;;;;;;0.90;0.90;;;;;;;;;;5025384;28;20228;-56
2022/08/26 14:30:51;;;;;;;0.93;0.93;;;;;;;;;;5026775;28;20227;-58
2022/08/26 14:33:17;;;;;;;0.85;0.85;;;;;;;;;;5034857;28;20208;-57
2022/08/26 14:35:42;;;;;;;1.00;1.00;;;;;;;;;;5028263;28;20227;-58
2022/08/26 14:38:08;;;;;;;0.90;0.90;;;;;;;;;;5020060;28;20706;-57
2022/08/26 14:40:34;;;;;;;0.90;0.90;;;;;;;;;;5022228;28;20760;-57
2022/08/26 14:43:01;;;;;;;1.10;1.10;;;;;;;;;;5023381;28;20225;-56
2022/08/26 14:45:28;;;;;;;0.90;0.90;;;;;;;;;;5021462;28;20220;-57
2022/08/26 14:47:55;;;;;;;0.90;0.90;;;;;;;;;;5022049;28;20579;-57
2022/08/26 14:50:21;;;;;;;1.00;1.00;;;;;;;;;;5022998;28;20220;-56
2022/08/26 14:55:33;;;;;;;0.90;0.90;;;;;;;;;;5032563;28;20231;-58